Time;durP1;ratioP1;P1;durP2;ratioP2;P2;SDS_P1;SDS_P2;PMS_P1;PMS_P2;Temp;Humidity;BMP_temperature;BMP_pressure;BME280_temperature;BME280_humidity;BME280_pressure;Samples;Min_cycle;Max_cycle;Signal;HPM_P1;HPM_P2
2022/01/24 00:00:13;;;;;;;16.13;6.50;;;;;;;-0.24;46.94;102169.34;5355220;32;34603;-75
2022/01/24 00:03:15;;;;;;;13.13;6.57;;;;;;;-0.85;48.71;102170.66;5353562;32;34636;-66
2022/01/24 00:06:17;;;;;;;15.90;7.10;;;;;;;-0.21;47.68;102161.66;5358643;32;44305;-66
2022/01/24 00:09:19;;;;;;;16.33;7.07;;;;;;;0.23;47.07;102158.81;5369531;32;36466;-76
2022/01/24 00:16:18;;;;;;;14.13;6.47;;;;;;;0.30;46.75;102171.94;5362877;32;35754;-78
2022/01/24 00:28:38;;;;;;;15.27;7.13;;;;;;;-0.27;47.65;102175.25;5377361;32;35881;-69
2022/01/24 00:31:40;;;;;;;14.33;6.03;;;;;;;0.04;47.16;102174.56;5362726;32;34631;-77
2022/01/24 00:34:42;;;;;;;14.70;6.43;;;;;;;0.36;45.17;102180.75;5369351;32;34540;-77
2022/01/24 00:37:44;;;;;;;15.20;6.37;;;;;;;0.94;44.69;102184.22;5360602;32;34505;-75
2022/01/24 00:40:48;;;;;;;13.23;6.03;;;;;;;0.85;43.62;102190.03;5357628;32;44285;-66
2022/01/24 00:47:29;;;;;;;15.73;7.27;;;;;;;0.07;46.46;102191.91;5361049;32;34629;-76
2022/01/24 00:57:14;;;;;;;14.40;6.63;;;;;;;-0.57;48.61;102195.78;5326935;32;35163;-67
2022/01/24 01:00:16;;;;;;;16.17;7.27;;;;;;;-0.30;48.29;102194.12;5355344;32;46606;-75
2022/01/24 01:03:19;;;;;;;16.03;6.80;;;;;;;-0.19;48.13;102191.00;5348881;32;34888;-67
2022/01/24 01:06:21;;;;;;;16.00;7.27;;;;;;;0.52;46.16;102188.19;5373855;32;34605;-66
2022/01/24 01:19:26;;;;;;;20.53;8.00;;;;;;;-0.83;47.89;102190.56;5353017;32;35822;-75
2022/01/24 01:22:28;;;;;;;14.60;6.30;;;;;;;-0.77;48.96;102187.31;5366148;32;34421;-66
2022/01/24 01:25:31;;;;;;;16.83;7.00;;;;;;;0.03;45.94;102183.16;5352989;32;35883;-68
2022/01/24 01:28:34;;;;;;;16.03;6.73;;;;;;;-0.60;47.76;102177.56;5368229;32;35815;-67
2022/01/24 01:32:08;;;;;;;12.93;5.57;;;;;;;-0.79;48.52;102188.94;5359759;32;34596;-75
2022/01/24 01:55:36;;;;;;;19.00;7.23;;;;;;;-1.29;49.53;102193.13;5360078;32;35872;-75
2022/01/24 01:58:38;;;;;;;15.07;5.83;;;;;;;-1.20;49.77;102183.16;5351601;32;34668;-76
2022/01/24 02:01:40;;;;;;;18.33;6.70;;;;;;;-0.15;47.24;102178.25;5349602;32;34501;-67
2022/01/24 02:04:42;;;;;;;13.80;6.70;;;;;;;-0.70;48.62;102186.72;5359927;32;35372;-67
2022/01/24 02:07:50;;;;;;;18.07;7.23;;;;;;;-0.94;49.24;102191.88;5367852;32;34761;-77
2022/01/24 02:10:52;;;;;;;18.57;6.80;;;;;;;-0.94;49.27;102193.56;5363074;32;44530;-66
2022/01/24 02:13:57;;;;;;;15.83;6.97;;;;;;;-0.79;49.68;102193.25;5357674;32;34492;-75
2022/01/24 02:17:05;;;;;;;17.30;7.83;;;;;;;-0.93;49.94;102203.06;5358987;32;34553;-77
2022/01/24 02:20:41;;;;;;;16.90;6.87;;;;;;;-0.73;48.75;102212.41;5365883;32;34535;-68
2022/01/24 02:23:41;;;;;;;18.33;8.23;;;;;;;-0.30;48.31;102209.63;5360635;32;35761;-77
2022/01/24 02:26:44;;;;;;;19.90;8.73;;;;;;;-1.66;51.45;102217.50;5362131;32;34664;-75
2022/01/24 02:29:55;;;;;;;22.00;9.30;;;;;;;-1.51;53.06;102206.91;5364372;32;46477;-66
2022/01/24 02:32:57;;;;;;;21.63;9.53;;;;;;;-1.45;52.90;102209.72;5371213;32;35763;-75
2022/01/24 02:35:59;;;;;;;24.13;10.13;;;;;;;-1.45;53.15;102203.69;5350841;32;34430;-67
2022/01/24 02:48:46;;;;;;;23.27;10.93;;;;;;;-1.02;52.93;102210.50;5338985;32;44855;-66
2022/01/24 02:51:49;;;;;;;22.10;10.67;;;;;;;-1.43;53.61;102220.09;5358146;32;35160;-66
2022/01/24 02:54:51;;;;;;;20.83;10.77;;;;;;;-1.52;54.40;102217.16;5351774;32;35258;-75
2022/01/24 02:57:53;;;;;;;24.97;11.80;;;;;;;-2.07;55.81;102220.06;5355755;32;36339;-77
2022/01/24 03:00:57;;;;;;;23.37;11.17;;;;;;;-1.68;55.78;102213.97;5352366;32;34859;-77
2022/01/24 03:03:59;;;;;;;26.17;12.23;;;;;;;-1.61;55.63;102216.78;5356769;32;34608;-74
2022/01/24 03:07:01;;;;;;;26.43;11.50;;;;;;;-1.34;54.60;102215.31;5357995;32;34441;-74
2022/01/24 03:10:12;;;;;;;26.07;12.37;;;;;;;-1.84;55.81;102216.75;5358775;32;35856;-75
2022/01/24 03:13:30;;;;;;;30.07;12.67;;;;;;;-1.66;55.70;102226.94;5366873;32;34697;-66
2022/01/24 03:16:32;;;;;;;28.00;13.37;;;;;;;-1.59;55.16;102220.31;5360493;32;35896;-75
2022/01/24 03:19:35;;;;;;;28.17;12.00;;;;;;;-1.59;55.97;102228.06;5363753;32;34552;-76
2022/01/24 03:22:37;;;;;;;23.23;11.43;;;;;;;-1.65;55.58;102231.28;5361156;32;34445;-75
2022/01/24 03:25:40;;;;;;;27.70;12.23;;;;;;;-2.50;57.75;102247.47;5366792;32;34575;-68
2022/01/24 03:28:42;;;;;;;30.87;13.47;;;;;;;-2.05;57.61;102242.53;5374550;32;35944;-75
2022/01/24 03:31:45;;;;;;;23.37;11.50;;;;;;;-2.22;57.56;102241.81;5361114;32;36353;-66
2022/01/24 03:34:48;;;;;;;27.05;12.50;;;;;;;-0.74;53.08;102244.22;5357765;32;45228;-68
2022/01/24 03:37:50;;;;;;;29.20;11.87;;;;;;;-2.92;59.02;102249.03;5361504;32;35995;-67
2022/01/24 03:40:52;;;;;;;25.83;12.23;;;;;;;-2.33;58.17;102244.75;5366655;32;36028;-76
2022/01/24 03:44:01;;;;;;;31.20;12.43;;;;;;;-3.01;59.50;102248.62;5370003;32;34430;-76
2022/01/24 03:47:29;;;;;;;25.03;11.30;;;;;;;-2.83;59.27;102256.28;5363629;32;35404;-77
2022/01/24 03:50:26;;;;;;;22.97;10.40;;;;;;;-2.59;58.30;102251.34;5369071;32;37185;-67
2022/01/24 03:53:28;;;;;;;26.77;11.30;;;;;;;-3.30;59.89;102257.53;5373126;32;37375;-67
2022/01/24 03:56:30;;;;;;;23.27;11.17;;;;;;;-2.69;58.29;102260.37;5340634;32;35748;-67
2022/01/24 03:59:32;;;;;;;25.47;11.00;;;;;;;-3.19;59.86;102265.75;5357403;32;35813;-75
2022/01/24 04:02:35;;;;;;;24.00;11.00;;;;;;;-2.87;59.02;102254.38;5356896;32;34835;-75
2022/01/24 04:05:37;;;;;;;23.20;10.40;;;;;;;-3.19;59.47;102250.34;5354132;32;35966;-67
2022/01/24 04:08:39;;;;;;;24.13;10.07;;;;;;;-2.68;57.98;102256.09;5362958;32;35941;-67
2022/01/24 04:11:42;;;;;;;24.07;9.83;;;;;;;-2.59;57.77;102249.63;5363844;32;37644;-67
2022/01/24 04:17:58;;;;;;;24.37;10.53;;;;;;;-1.96;55.15;102236.87;5364627;32;44735;-75
2022/01/24 04:24:23;;;;;;;21.73;10.53;;;;;;;-2.70;58.66;102255.12;5363197;32;43018;-66
2022/01/24 04:27:29;;;;;;;22.07;11.23;;;;;;;-2.55;57.91;102255.81;5367298;32;34498;-66
2022/01/24 04:30:31;;;;;;;21.83;10.47;;;;;;;-2.80;58.10;102267.59;5367417;32;34673;-75
2022/01/24 04:33:33;;;;;;;27.13;12.10;;;;;;;-2.00;56.42;102264.19;5375037;32;34371;-70
2022/01/24 04:36:36;;;;;;;30.77;13.57;;;;;;;-2.59;57.98;102277.09;5363112;32;34605;-75
2022/01/24 04:39:38;;;;;;;23.70;11.43;;;;;;;-2.78;59.28;102281.41;5355638;32;35252;-75
2022/01/24 04:42:48;;;;;;;26.73;12.37;;;;;;;-2.48;57.99;102278.44;5362889;32;34736;-75
2022/01/24 04:46:14;;;;;;;38.90;16.73;;;;;;;-2.76;58.66;102264.34;5362510;32;46583;-76
2022/01/24 04:55:49;;;;;;;33.10;13.60;;;;;;;-3.14;60.75;102300.31;5343130;32;44522;-67
2022/01/24 04:58:51;;;;;;;30.63;13.87;;;;;;;-2.90;59.70;102305.69;5357750;32;35217;-75
2022/01/24 05:01:53;;;;;;;31.73;13.90;;;;;;;-3.50;61.65;102305.44;5343993;32;35513;-75
2022/01/24 05:04:56;;;;;;;30.83;13.73;;;;;;;-3.56;62.57;102302.56;5365084;32;34486;-66
2022/01/24 05:08:03;;;;;;;28.70;13.80;;;;;;;-3.46;62.10;102302.22;5361070;32;35178;-75
2022/01/24 05:11:10;;;;;;;32.87;14.97;;;;;;;-3.62;63.27;102309.97;5362621;32;36027;-75
2022/01/24 05:24:14;;;;;;;28.77;13.87;;;;;;;-3.14;62.09;102326.91;5364895;32;34662;-75
2022/01/24 05:27:17;;;;;;;29.07;13.37;;;;;;;-3.03;61.87;102330.88;5353950;32;44714;-67
2022/01/24 05:30:19;;;;;;;28.10;12.57;;;;;;;-2.27;59.43;102328.31;5372359;32;35512;-77
2022/01/24 05:33:21;;;;;;;31.40;15.93;;;;;;;-1.88;57.89;102324.81;5361273;32;35868;-68
2022/01/24 05:36:23;;;;;;;29.33;14.43;;;;;;;-2.92;59.81;102344.22;5355253;32;35880;-67
2022/01/24 05:39:25;;;;;;;32.47;14.20;;;;;;;-2.81;60.62;102343.03;5362494;32;35524;-76
2022/01/24 05:42:28;;;;;;;37.40;14.27;;;;;;;-3.36;62.85;102332.69;5367542;32;35010;-67
2022/01/24 05:45:30;;;;;;;31.40;13.30;;;;;;;-4.07;64.97;102344.53;5363578;32;34655;-76
2022/01/24 05:48:32;;;;;;;32.63;14.47;;;;;;;-3.95;65.71;102350.28;5363127;32;34614;-67
2022/01/24 05:51:34;;;;;;;34.87;15.77;;;;;;;-3.38;63.13;102357.47;5364198;32;35865;-76
2022/01/24 05:54:40;;;;;;;29.43;15.87;;;;;;;-2.69;61.72;102347.88;5353167;32;34826;-66
2022/01/24 05:57:43;;;;;;;30.87;14.67;;;;;;;-2.97;60.37;102355.09;5347335;32;34186;-76
2022/01/24 06:00:45;;;;;;;37.17;16.03;;;;;;;-2.07;58.21;102346.34;5347281;32;34501;-76
2022/01/24 06:03:47;;;;;;;30.13;14.03;;;;;;;-2.98;59.83;102358.50;5351287;32;44325;-77
2022/01/24 06:06:50;;;;;;;33.47;15.30;;;;;;;-1.73;56.93;102351.25;5361235;32;35786;-76
2022/01/24 06:09:52;;;;;;;32.50;14.97;;;;;;;-1.82;56.89;102363.75;5369514;32;35356;-76
2022/01/24 06:12:54;;;;;;;36.43;15.33;;;;;;;-2.92;60.67;102369.06;5362789;32;35195;-67
2022/01/24 06:15:56;;;;;;;37.70;15.77;;;;;;;-2.36;58.92;102363.97;5360081;32;35881;-68
2022/01/24 06:18:59;;;;;;;33.60;15.43;;;;;;;-1.90;57.76;102366.00;5377146;32;35890;-75
2022/01/24 06:22:01;;;;;;;30.77;15.03;;;;;;;-2.04;57.52;102374.81;5359372;32;35928;-66
2022/01/24 06:25:05;;;;;;;37.13;16.43;;;;;;;-3.82;63.22;102379.25;5367160;32;34404;-65
2022/01/24 06:28:16;;;;;;;32.13;14.60;;;;;;;-3.25;63.52;102384.66;5346701;32;43070;-75
2022/01/24 06:31:19;;;;;;;32.33;14.47;;;;;;;-2.38;60.34;102386.22;5359969;32;34603;-66
2022/01/24 06:34:21;;;;;;;32.07;14.17;;;;;;;-1.73;57.47;102388.22;5346125;32;34626;-78
2022/01/24 06:37:23;;;;;;;34.87;14.80;;;;;;;-2.77;58.99;102390.38;5352598;32;37225;-78
2022/01/24 06:40:25;;;;;;;32.30;15.20;;;;;;;-4.01;63.54;102394.53;5348993;32;35451;-68
2022/01/24 06:43:28;;;;;;;30.80;14.10;;;;;;;-3.48;63.69;102400.63;5344310;32;33705;-78
2022/01/24 06:46:30;;;;;;;29.83;14.53;;;;;;;-3.00;61.94;102400.47;5359399;32;35982;-74
2022/01/24 06:49:35;;;;;;;34.20;14.93;;;;;;;-2.20;58.77;102406.75;5349916;32;35582;-75
2022/01/24 06:52:37;;;;;;;29.77;14.00;;;;;;;-2.57;59.17;102405.09;5363456;32;35924;-66
2022/01/24 06:55:40;;;;;;;30.80;13.57;;;;;;;-3.15;62.35;102417.75;5343858;32;35337;-64
2022/01/24 06:58:42;;;;;;;30.10;13.87;;;;;;;-2.48;59.85;102417.50;5345718;32;35758;-74
2022/01/24 07:01:45;;;;;;;31.90;14.60;;;;;;;-3.83;63.43;102428.00;5342094;32;35944;-76
2022/01/24 07:04:47;;;;;;;31.57;15.10;;;;;;;-3.30;63.43;102429.81;5352571;32;44360;-75
2022/01/24 07:07:56;;;;;;;27.37;13.30;;;;;;;-3.17;62.29;102426.19;5349385;32;34576;-66
2022/01/24 07:10:59;;;;;;;27.50;12.63;;;;;;;-2.27;59.81;102426.19;5355088;32;36066;-74
2022/01/24 07:14:06;;;;;;;34.13;14.23;;;;;;;-1.56;56.38;102424.16;5349871;32;36372;-73
2022/01/24 07:17:29;;;;;;;32.07;14.20;;;;;;;-2.07;57.94;102432.25;5353128;32;34092;-74
2022/01/24 07:20:35;;;;;;;28.77;13.50;;;;;;;-1.43;55.89;102432.47;5354312;32;34693;-67
2022/01/24 07:23:40;;;;;;;28.80;13.03;;;;;;;-2.66;59.27;102438.09;5367248;32;36350;-73
2022/01/24 07:26:42;;;;;;;32.83;13.40;;;;;;;-2.63;60.01;102442.53;5347875;32;34452;-78
2022/01/24 07:29:45;;;;;;;26.90;13.30;;;;;;;-2.43;58.95;102444.34;5361045;32;34147;-65
2022/01/24 07:32:47;;;;;;;28.07;14.17;;;;;;;-2.53;59.85;102457.59;5371049;32;44668;-73
2022/01/24 07:35:49;;;;;;;28.07;13.00;;;;;;;-1.47;55.94;102455.50;5359515;32;35938;-75
2022/01/24 07:38:52;;;;;;;25.87;12.93;;;;;;;-1.73;56.00;102462.12;5357660;32;34676;-73
2022/01/24 07:42:02;;;;;;;31.63;14.67;;;;;;;-1.95;56.70;102468.88;5364330;32;34985;-65
2022/01/24 07:45:05;;;;;;;29.70;13.97;;;;;;;-2.26;57.63;102479.47;5359344;32;35590;-76
2022/01/24 07:48:07;;;;;;;35.03;15.10;;;;;;;-2.95;60.56;102488.19;5360664;32;34562;-62
2022/01/24 07:51:10;;;;;;;32.53;15.33;;;;;;;-2.91;60.94;102490.06;5353816;32;34509;-71
2022/01/24 07:54:13;;;;;;;37.77;16.53;;;;;;;-3.03;61.73;102492.97;5364946;32;35948;-63
2022/01/24 07:57:16;;;;;;;30.80;15.47;;;;;;;-2.90;60.73;102498.69;5339917;32;34389;-71
2022/01/24 08:00:18;;;;;;;32.43;15.83;;;;;;;-2.05;58.31;102495.06;5339948;32;44411;-71
2022/01/24 08:03:21;;;;;;;34.77;13.70;;;;;;;-1.93;58.27;102494.75;5358732;32;35924;-68
2022/01/24 08:06:26;;;;;;;24.03;11.73;;;;;;;-0.94;53.68;102478.41;5358685;32;35138;-61
2022/01/24 08:09:28;;;;;;;36.90;13.30;;;;;;;-2.07;56.25;102486.34;5351653;32;34914;-63
2022/01/24 08:12:31;;;;;;;25.53;12.00;;;;;;;-2.13;55.17;102490.34;5364111;32;35275;-63
2022/01/24 08:15:33;;;;;;;26.97;11.93;;;;;;;-2.21;55.67;102495.16;5352331;32;35910;-70
2022/01/24 08:18:35;;;;;;;28.83;11.10;;;;;;;-2.35;55.66;102503.94;5359272;32;34588;-72
2022/01/24 08:21:38;;;;;;;25.10;11.37;;;;;;;-1.25;52.17;102491.72;5353738;32;34771;-73
2022/01/24 08:24:40;;;;;;;29.43;11.37;;;;;;;-0.64;50.55;102490.81;5361917;32;36026;-65
2022/01/24 08:27:47;;;;;;;29.50;12.30;;;;;;;-1.57;52.35;102502.34;5359984;32;34528;-64
2022/01/24 08:30:52;;;;;;;26.30;12.40;;;;;;;-1.07;51.56;102496.78;5354843;32;44743;-73
2022/01/24 08:33:59;;;;;;;27.50;11.13;;;;;;;-0.74;50.48;102494.69;5352072;32;36379;-64
2022/01/24 08:37:01;;;;;;;37.63;12.97;;;;;;;-0.53;49.69;102497.25;5359916;32;35714;-64
2022/01/24 08:40:05;;;;;;;22.57;9.83;;;;;;;-0.53;48.65;102505.00;5353972;32;34355;-61
2022/01/24 08:43:12;;;;;;;24.83;8.63;;;;;;;-0.47;48.13;102501.78;5359864;32;34476;-68
2022/01/24 08:46:18;;;;;;;30.10;9.90;;;;;;;-1.54;48.88;102505.06;5344146;32;35676;-61
2022/01/24 08:49:22;;;;;;;47.30;12.93;;;;;;;-0.98;48.77;102509.16;5363430;32;44477;-61
2022/01/24 08:52:28;;;;;;;25.70;9.13;;;;;;;-0.98;48.93;102502.31;5360531;32;34794;-72
2022/01/24 08:55:47;;;;;;;25.80;8.57;;;;;;;-0.84;47.92;102502.88;5333302;32;44286;-71
2022/01/24 08:58:49;;;;;;;25.37;9.03;;;;;;;-0.94;47.70;102506.78;5361105;32;35069;-66
2022/01/24 09:01:52;;;;;;;21.03;8.47;;;;;;;-1.14;48.48;102508.53;5357356;32;35976;-63
2022/01/24 09:04:55;;;;;;;23.43;8.87;;;;;;;-0.49;45.97;102498.28;5355291;32;34550;-62
2022/01/24 09:08:00;;;;;;;26.90;9.03;;;;;;;-0.60;45.84;102505.59;5355227;32;35789;-68
2022/01/24 09:11:03;;;;;;;23.20;8.63;;;;;;;-0.87;46.91;102505.34;5360210;32;34657;-70
2022/01/24 09:14:08;;;;;;;22.52;8.23;;;;;;;-0.85;46.44;102514.03;5357908;32;35956;-68
2022/01/24 09:17:11;;;;;;;58.73;11.10;;;;;;;-0.70;45.20;102506.94;5353758;32;34449;-68
2022/01/24 09:20:16;;;;;;;38.40;11.05;;;;;;;-1.12;46.40;102509.47;5368716;32;34537;-69
2022/01/24 09:23:19;;;;;;;22.63;8.13;;;;;;;-0.33;45.01;102506.66;5350596;32;44600;-72
2022/01/24 09:26:21;;;;;;;18.50;7.93;;;;;;;-0.08;44.09;102505.91;5323127;32;35326;-70
2022/01/24 09:29:24;;;;;;;33.90;10.73;;;;;;;-0.13;43.50;102509.13;5356317;32;36964;-69
2022/01/24 09:32:28;;;;;;;22.30;7.47;;;;;;;-0.91;46.65;102517.22;5362939;32;38827;-70
2022/01/24 09:35:30;;;;;;;19.30;8.43;;;;;;;-0.21;43.99;102503.69;5359607;32;35502;-65
2022/01/24 09:38:34;;;;;;;27.20;7.90;;;;;;;-0.28;43.86;102502.56;5356567;32;36036;-65
2022/01/24 09:41:43;;;;;;;34.30;8.93;;;;;;;1.03;41.48;102496.12;5342622;32;35853;-63
2022/01/24 09:45:07;;;;;;;16.33;6.47;;;;;;;1.10;40.68;102491.16;5358349;32;35232;-60
2022/01/24 09:48:12;;;;;;;23.17;8.63;;;;;;;0.79;41.30;102500.47;5341598;32;36238;-63
2022/01/24 09:51:16;;;;;;;30.07;9.57;;;;;;;-0.82;45.08;102511.59;5350348;32;34466;-66
2022/01/24 09:54:19;;;;;;;19.43;8.57;;;;;;;-0.44;44.87;102491.59;5346076;32;44453;-68
2022/01/24 09:57:22;;;;;;;23.90;7.90;;;;;;;-0.16;44.58;102496.12;5348377;32;35595;-69
2022/01/24 10:00:26;;;;;;;28.40;7.13;;;;;;;0.90;41.87;102486.19;5352414;32;34591;-69
2022/01/24 10:03:28;;;;;;;18.07;6.67;;;;;;;-0.76;43.12;102491.19;5357926;32;33619;-65
2022/01/24 10:07:07;;;;;;;21.73;7.23;;;;;;;-1.07;44.83;102483.00;5345391;32;34336;-70
2022/01/24 10:10:09;;;;;;;19.37;7.50;;;;;;;0.56;42.01;102478.06;5355425;32;34931;-64
2022/01/24 10:16:45;;;;;;;16.67;6.70;;;;;;;1.16;40.28;102478.38;5355419;32;36354;-69
2022/01/24 10:19:47;;;;;;;14.97;6.57;;;;;;;0.03;42.48;102482.19;5341509;32;44794;-70
2022/01/24 10:23:09;;;;;;;26.73;7.57;;;;;;;0.20;42.20;102481.13;5368925;32;34437;-62
2022/01/24 10:26:13;;;;;;;15.67;6.77;;;;;;;0.82;40.84;102483.31;5357898;32;34592;-63
2022/01/24 10:29:15;;;;;;;;;;;;;;;1.69;39.06;102479.22;5358697;32;44637;-65
2022/01/24 10:32:35;;;;;;;25.87;6.83;;;;;;;0.80;39.48;102481.50;5347413;32;44672;-70
2022/01/24 10:35:43;;;;;;;14.30;5.90;;;;;;;3.80;35.11;102470.94;5357724;32;35198;-66
2022/01/24 10:38:55;;;;;;;12.70;5.97;;;;;;;4.39;32.73;102467.81;5353560;32;44503;-70
2022/01/24 10:45:27;;;;;;;15.53;7.87;;;;;;;10.10;24.20;102445.16;5362123;32;44278;-71
2022/01/24 10:48:39;;;;;;;24.87;6.93;;;;;;;8.52;25.84;102449.72;5360861;32;34438;-68
2022/01/24 10:51:44;;;;;;;13.50;6.47;;;;;;;8.30;24.33;102455.72;5338318;32;34625;-65
2022/01/24 10:54:47;;;;;;;35.17;8.43;;;;;;;9.58;24.76;102440.09;5343843;32;44519;-68
2022/01/24 10:57:56;;;;;;;20.70;7.82;;;;;;;11.01;22.54;102429.69;5324602;32;36252;-62
2022/01/24 11:00:58;;;;;;;17.40;7.10;;;;;;;9.35;24.69;102445.38;5359052;32;35321;-67
2022/01/24 11:04:04;;;;;;;16.67;6.60;;;;;;;6.28;27.86;102464.69;5354233;32;34368;-71
2022/01/24 11:07:07;;;;;;;30.60;8.77;;;;;;;8.38;25.20;102446.19;5354135;32;34202;-65
2022/01/24 11:10:14;;;;;;;15.53;6.17;;;;;;;8.01;25.10;102442.53;5369099;32;34687;-70
2022/01/24 11:13:24;;;;;;;;;;;;;;;6.21;27.71;102444.59;5353515;32;46275;-66
2022/01/24 11:16:27;;;;;;;12.27;5.30;;;;;;;4.41;30.00;102428.78;5352102;32;36290;-68
2022/01/24 11:19:35;;;;;;;14.87;5.57;;;;;;;4.37;30.02;102453.84;5357315;32;34555;-70
2022/01/24 11:22:42;;;;;;;16.60;6.77;;;;;;;2.71;32.53;102464.84;5356893;32;35023;-67
2022/01/24 11:25:47;;;;;;;13.50;5.70;;;;;;;2.41;34.53;102472.69;5371032;32;34613;-67
2022/01/24 11:28:50;;;;;;;15.63;6.70;;;;;;;4.45;31.07;102459.25;5358558;32;46603;-69
2022/01/24 11:32:05;;;;;;;17.95;5.95;;;;;;;3.06;33.39;102467.44;5368128;32;34534;-67
2022/01/24 11:35:08;;;;;;;12.37;6.17;;;;;;;3.44;33.10;102454.50;5354799;32;34524;-69
2022/01/24 11:38:30;;;;;;;22.13;6.90;;;;;;;3.22;32.93;102447.91;5354467;32;36264;-74
2022/01/24 11:50:36;;;;;;;14.83;5.93;;;;;;;5.57;28.81;102431.56;5234457;33;37242;-75
2022/01/24 11:57:49;;;;;;;14.23;5.73;;;;;;;3.46;32.04;102427.69;5195128;33;34282;-71
2022/01/24 12:05:56;;;;;;;18.23;6.30;;;;;;;3.89;30.54;102419.94;5505472;31;34548;-79
2022/01/24 12:10:23;;;;;;;17.98;6.47;;;;;;;3.14;31.68;102419.13;5502637;32;33824;-72
2022/01/24 12:26:07;;;;;;;12.80;5.00;;;;;;;7.31;25.85;102382.84;5394793;32;34583;-76
2022/01/24 13:06:56;;;;;;;15.25;5.43;;;;;;;4.83;27.98;102374.84;5471417;32;35147;-80
2022/01/24 13:41:27;;;;;;;22.47;7.30;;;;;;;9.44;22.10;102363.13;5438451;32;35470;-76
2022/01/24 13:45:29;;;;;;;15.50;6.03;;;;;;;12.17;18.94;102352.03;5430231;32;34860;-78
2022/01/24 13:49:11;;;;;;;19.73;6.10;;;;;;;11.78;19.53;102354.28;5433548;32;35153;-83
2022/01/24 14:12:11;;;;;;;21.17;6.37;;;;;;;5.90;26.31;102371.09;5449282;32;35033;-84
2022/01/24 14:29:18;;;;;;;15.30;5.90;;;;;;;5.48;27.54;102365.37;5169790;33;34471;-81
2022/01/24 14:32:48;;;;;;;21.90;6.90;;;;;;;4.49;29.42;102364.69;5150217;33;34911;-70
2022/01/24 14:36:28;;;;;;;15.73;6.70;;;;;;;5.04;29.22;102357.78;5243406;32;44302;-74
2022/01/24 14:40:34;;;;;;;20.07;7.43;;;;;;;5.16;28.43;102342.31;5386125;32;35322;-76
2022/01/24 15:03:33;;;;;;;23.20;7.37;;;;;;;4.23;31.21;102359.00;5464748;32;35149;-76
2022/01/24 15:06:53;;;;;;;18.43;7.20;;;;;;;2.71;33.68;102363.56;5429976;32;36763;-72
2022/01/24 15:10:22;;;;;;;25.60;8.57;;;;;;;3.33;32.64;102359.78;5408090;32;35507;-79
2022/01/24 15:13:41;;;;;;;14.73;6.73;;;;;;;2.28;35.09;102373.69;5433880;32;43107;-78
2022/01/24 15:28:31;;;;;;;27.67;7.50;;;;;;;2.70;34.21;102382.59;5398234;32;35780;-74
2022/01/24 15:36:26;;;;;;;22.13;7.50;;;;;;;3.29;33.40;102374.47;5277662;33;33831;-77
2022/01/24 15:39:29;;;;;;;22.00;10.70;;;;;;;3.32;33.34;102382.31;5307146;32;35849;-73
2022/01/24 15:50:32;;;;;;;25.20;8.40;;;;;;;3.05;33.91;102377.38;5383827;32;33166;-79
2022/01/24 15:58:16;;;;;;;20.13;8.60;;;;;;;3.05;34.84;102382.56;5402782;32;36757;-77
2022/01/24 16:01:39;;;;;;;19.17;7.67;;;;;;;1.91;36.97;102393.44;5454507;32;44117;-71
2022/01/24 16:04:53;;;;;;;27.67;9.40;;;;;;;3.03;35.40;102388.53;5448608;32;36272;-78
2022/01/24 16:08:16;;;;;;;18.63;9.10;;;;;;;3.25;34.87;102381.28;5437868;32;34976;-77
2022/01/24 16:12:09;;;;;;;;;;;;;;;;;;;;;
2022/01/24 16:15:42;;;;;;;24.03;7.93;;;;;;;2.71;36.44;102386.94;5378224;32;35874;-76
2022/01/24 16:19:22;;;;;;;24.27;9.50;;;;;;;2.13;37.28;102389.75;5390765;32;34598;-71
2022/01/24 16:22:52;;;;;;;21.20;8.47;;;;;;;2.24;37.51;102393.47;5370993;32;37108;-71
2022/01/24 16:37:48;;;;;;;18.13;9.10;;;;;;;1.83;39.49;102415.69;5445978;32;36377;-87
2022/01/24 16:40:59;;;;;;;24.13;9.53;;;;;;;1.73;39.98;102418.81;5461703;32;36851;-71
2022/01/24 16:44:17;;;;;;;18.30;8.13;;;;;;;1.83;39.76;102415.69;5438691;32;36349;-78
2022/01/24 16:47:26;;;;;;;28.97;10.20;;;;;;;1.88;40.07;102419.28;5445679;32;44338;-78
2022/01/24 16:50:30;;;;;;;33.33;12.70;;;;;;;1.45;40.96;102423.19;5422783;32;34804;-77
2022/01/24 16:53:40;;;;;;;22.20;8.83;;;;;;;1.83;40.38;102421.75;5456150;32;36733;-73
2022/01/24 16:56:47;;;;;;;22.07;9.07;;;;;;;1.86;40.27;102426.13;5391913;32;43886;-71
2022/01/24 16:59:50;;;;;;;20.93;9.03;;;;;;;2.03;40.26;102430.09;5446129;32;35894;-79
2022/01/24 17:02:53;;;;;;;22.35;8.75;;;;;;;1.96;40.50;102425.56;5427134;32;35819;-71
2022/01/24 17:05:58;;;;;;;20.77;9.15;;;;;;;2.10;40.31;102429.44;5447001;32;36341;-71
2022/01/24 17:09:02;;;;;;;24.40;9.80;;;;;;;2.51;39.44;102424.47;5449904;32;36055;-83
2022/01/24 17:12:04;;;;;;;;;;;;;;;2.02;40.55;102423.16;5451896;32;34622;-82
2022/01/24 17:15:10;;;;;;;26.90;11.13;;;;;;;1.43;41.74;102432.63;5446868;32;34830;-72
2022/01/24 17:18:18;;;;;;;27.83;9.60;;;;;;;2.02;40.89;102428.34;5457788;32;35001;-82
2022/01/24 17:21:20;;;;;;;23.63;9.20;;;;;;;1.54;42.00;102420.88;5457589;32;44360;-82
2022/01/24 17:24:23;;;;;;;27.90;10.27;;;;;;;1.85;40.72;102420.06;5456421;32;34855;-72
2022/01/24 17:27:46;;;;;;;25.17;10.57;;;;;;;1.66;41.87;102429.84;5450873;32;34971;-72
2022/01/24 17:30:51;;;;;;;22.00;9.47;;;;;;;1.91;41.15;102427.16;5437978;32;44053;-72
2022/01/24 17:33:54;;;;;;;24.03;9.17;;;;;;;2.35;40.48;102427.50;5457031;32;34819;-71
2022/01/24 17:36:57;;;;;;;20.00;9.10;;;;;;;1.76;41.96;102435.38;5460478;32;36022;-71
2022/01/24 17:40:02;;;;;;;25.70;8.50;;;;;;;2.19;40.98;102431.41;5457063;32;37243;-72
2022/01/24 17:43:05;;;;;;;19.20;9.43;;;;;;;1.46;42.74;102437.03;5459237;32;37014;-71
2022/01/24 17:46:30;;;;;;;21.50;9.00;;;;;;;0.34;44.75;102446.28;5458191;32;44177;-72
2022/01/24 17:49:36;;;;;;;20.27;10.23;;;;;;;0.66;44.46;102446.50;5455398;32;35946;-81
2022/01/24 17:52:40;;;;;;;23.10;9.80;;;;;;;0.49;45.16;102428.69;5469675;32;36036;-72
2022/01/24 17:55:43;;;;;;;22.57;10.20;;;;;;;0.86;44.17;102427.34;5432851;32;36126;-81
2022/01/24 17:58:46;;;;;;;21.60;9.27;;;;;;;-0.27;46.74;102420.75;5475930;32;35293;-79
2022/01/24 18:01:49;;;;;;;19.62;9.50;;;;;;;0.38;45.87;102435.19;5470948;32;34824;-81
2022/01/24 18:04:52;;;;;;;21.87;9.63;;;;;;;0.53;44.83;102429.69;5471277;32;35872;-72
2022/01/24 18:07:54;;;;;;;23.70;9.83;;;;;;;0.15;45.90;102446.44;5478691;32;34553;-71
2022/01/24 18:10:56;;;;;;;21.53;9.63;;;;;;;-0.15;46.33;102447.06;5473613;32;34479;-82
2022/01/24 18:13:59;;;;;;;20.63;9.43;;;;;;;0.38;45.35;102445.53;5481809;32;34571;-72
2022/01/24 18:17:03;;;;;;;24.00;9.83;;;;;;;0.17;46.04;102445.66;5479537;32;35765;-81
2022/01/24 18:20:07;;;;;;;22.63;9.60;;;;;;;0.28;45.72;102440.88;5483149;32;34739;-81
2022/01/24 18:23:09;;;;;;;25.17;9.93;;;;;;;1.18;43.78;102432.69;5471803;32;35874;-71
2022/01/24 18:26:11;;;;;;;21.83;9.37;;;;;;;0.50;45.02;102439.91;5477918;32;34710;-71
2022/01/24 18:29:14;;;;;;;21.00;9.80;;;;;;;0.90;44.38;102444.75;5476941;32;34469;-72
2022/01/24 18:32:17;;;;;;;21.80;9.75;;;;;;;1.28;42.86;102439.91;5477855;32;46496;-71
2022/01/24 18:35:19;;;;;;;20.40;9.70;;;;;;;0.40;45.22;102446.50;5481270;32;34484;-72
2022/01/24 18:38:22;;;;;;;20.93;10.20;;;;;;;0.11;46.38;102444.56;5479399;32;36982;-71
2022/01/24 18:41:24;;;;;;;21.77;10.10;;;;;;;0.59;45.14;102449.72;5479572;32;34487;-71
2022/01/24 18:44:35;;;;;;;21.17;9.60;;;;;;;0.09;46.04;102446.22;5461464;32;35785;-81
2022/01/24 18:47:38;;;;;;;18.93;10.30;;;;;;;0.08;45.87;102444.47;5483080;32;34709;-82
2022/01/24 18:50:41;;;;;;;23.03;9.80;;;;;;;0.25;46.03;102451.97;5476887;32;34554;-81
2022/01/24 18:53:43;;;;;;;21.10;10.07;;;;;;;-0.30;46.71;102449.06;5479850;32;34465;-81
2022/01/24 18:56:45;;;;;;;21.97;9.00;;;;;;;0.00;46.70;102449.34;5454233;32;34696;-71
2022/01/24 18:59:47;;;;;;;22.80;9.70;;;;;;;-0.89;49.08;102457.94;5474565;32;44590;-72
2022/01/24 19:02:50;;;;;;;22.03;10.30;;;;;;;-0.69;48.42;102459.63;5475534;32;36710;-81
2022/01/24 19:05:52;;;;;;;24.17;10.23;;;;;;;-0.65;48.43;102453.72;5472082;32;35084;-72
2022/01/24 19:08:54;;;;;;;21.97;9.83;;;;;;;0.25;46.52;102451.09;5481329;32;34622;-72